createdAt,value
2018-12-04T00:01:35.037Z,1.00
2018-12-04T00:07:39.993Z,1.20
2018-12-04T00:13:44.752Z,1.20
2018-12-04T00:19:49.472Z,1.17
2018-12-04T00:25:54.298Z,1.37
2018-12-04T00:31:59.091Z,1.33
2018-12-04T00:38:04.206Z,2.00
2018-12-04T00:44:08.945Z,2.00
2018-12-04T00:50:14.347Z,2.83
2018-12-04T00:56:19.257Z,3.57
2018-12-04T01:02:24.947Z,2.43
2018-12-04T01:08:29.932Z,1.70
2018-12-04T01:14:35.142Z,1.20
2018-12-04T01:20:39.876Z,1.80
2018-12-04T01:26:44.858Z,2.03
2018-12-04T01:32:49.760Z,1.70
2018-12-04T01:38:54.568Z,2.07
2018-12-04T01:45:00.130Z,2.23
2018-12-04T01:51:05.757Z,2.30
2018-12-04T01:57:10.542Z,2.00
2018-12-04T02:03:15.375Z,1.80
2018-12-04T02:09:21.152Z,1.83
2018-12-04T02:15:26.159Z,1.80
2018-12-04T02:21:31.108Z,1.70
2018-12-04T02:27:36.002Z,1.60
2018-12-04T02:33:40.842Z,2.10
2018-12-04T02:39:46.235Z,2.50
2018-12-04T02:45:51.071Z,2.00
2018-12-04T02:51:55.849Z,1.80
2018-12-04T02:58:01.559Z,1.73
2018-12-04T03:04:06.362Z,2.30
2018-12-04T03:10:11.356Z,3.33
2018-12-04T03:16:16.128Z,3.83
2018-12-04T03:22:22.183Z,3.37
2018-12-04T03:28:26.991Z,3.00
2018-12-04T03:34:33.125Z,2.87
2018-12-04T03:40:38.632Z,3.30
2018-12-04T03:46:43.351Z,3.50
2018-12-04T03:52:49.204Z,4.10
2018-12-04T03:58:53.999Z,4.20
2018-12-04T04:04:58.729Z,3.57
2018-12-04T04:11:03.560Z,4.00
2018-12-04T04:17:08.393Z,3.83
2018-12-04T04:23:13.343Z,3.63
2018-12-04T04:29:18.631Z,4.17
2018-12-04T04:35:24.269Z,4.50
2018-12-04T04:41:29.989Z,4.07
2018-12-04T04:47:36.041Z,3.70
2018-12-04T04:53:40.994Z,4.23
2018-12-04T04:59:45.971Z,3.50
2018-12-04T05:06:00.158Z,4.00
2018-12-04T05:12:05.015Z,3.83
2018-12-04T05:18:09.761Z,3.30
2018-12-04T05:24:14.649Z,4.10
2018-12-04T05:30:19.537Z,5.33
2018-12-04T05:36:24.330Z,5.47
2018-12-04T05:42:29.255Z,5.23
2018-12-04T05:48:34.655Z,5.37
2018-12-04T05:54:39.503Z,5.63
2018-12-04T06:00:45.078Z,6.20
2018-12-04T06:06:49.812Z,5.80
2018-12-04T06:12:55.014Z,6.57
2018-12-04T06:19:00.093Z,5.33
2018-12-04T06:25:07.046Z,4.77
2018-12-04T06:31:11.921Z,4.90
2018-12-04T06:37:16.843Z,5.87
2018-12-04T06:43:21.733Z,4.73
2018-12-04T06:49:26.652Z,3.77
2018-12-04T06:55:31.546Z,3.20
2018-12-04T07:01:36.363Z,3.57
2018-12-04T07:07:41.163Z,3.67
2018-12-04T07:13:46.479Z,3.33
2018-12-04T07:19:51.680Z,4.00
2018-12-04T07:26:00.572Z,3.93
2018-12-04T07:32:06.036Z,3.60
2018-12-04T07:38:10.903Z,3.60
2018-12-04T07:44:15.635Z,3.23
2018-12-04T07:50:20.438Z,3.40
2018-12-04T07:56:25.416Z,3.73
2018-12-04T08:02:31.213Z,3.23
2018-12-04T08:08:36.618Z,3.30
2018-12-04T08:14:41.399Z,3.83
2018-12-04T08:20:46.951Z,3.20
2018-12-04T08:26:52.024Z,4.20
2018-12-04T08:32:56.912Z,5.33
2018-12-04T08:39:01.710Z,5.50
2018-12-04T08:45:08.742Z,5.70
2018-12-04T08:51:14.368Z,5.57
2018-12-04T08:57:24.329Z,4.83
2018-12-04T09:03:29.047Z,5.00
2018-12-04T09:09:34.551Z,4.80
2018-12-04T09:15:39.740Z,4.10
2018-12-04T09:21:44.583Z,4.67
2018-12-04T09:27:49.643Z,4.50
2018-12-04T09:33:55.225Z,3.80
2018-12-04T09:40:00.207Z,3.00
2018-12-04T09:46:05.592Z,3.40
2018-12-04T09:52:10.384Z,3.40
2018-12-04T09:58:15.241Z,3.87
2018-12-04T10:04:20.600Z,3.40
2018-12-04T10:10:25.365Z,3.90
2018-12-04T10:16:30.269Z,3.70
2018-12-04T10:22:39.813Z,2.90
2018-12-04T10:28:45.283Z,6.63
2018-12-04T10:34:50.724Z,3.63
2018-12-04T10:40:55.572Z,3.77
2018-12-04T10:47:00.454Z,2.90
2018-12-04T10:53:06.078Z,3.37
2018-12-04T10:59:11.000Z,2.50
2018-12-04T11:05:15.774Z,2.63
2018-12-04T11:11:20.559Z,3.00
2018-12-04T11:17:25.577Z,2.80
2018-12-04T11:23:30.472Z,3.33
2018-12-04T11:29:36.157Z,3.50
2018-12-04T11:35:42.231Z,2.90
2018-12-04T11:41:47.898Z,2.77
2018-12-04T11:47:52.971Z,3.40
2018-12-04T11:53:57.990Z,3.60
2018-12-04T12:00:03.130Z,3.07
2018-12-04T12:06:08.394Z,3.03
2018-12-04T12:12:13.289Z,3.63
2018-12-04T12:18:18.159Z,3.07
2018-12-04T12:24:23.801Z,3.40
2018-12-04T12:30:28.618Z,2.93
2018-12-04T12:36:33.449Z,4.40
2018-12-04T12:42:39.023Z,3.47
2018-12-04T12:48:43.786Z,2.07
2018-12-04T12:54:48.675Z,1.87
2018-12-04T13:00:53.492Z,2.10
2018-12-04T13:06:58.251Z,2.10
2018-12-04T13:13:03.043Z,2.10
2018-12-04T13:19:07.756Z,2.53
2018-12-04T13:25:12.595Z,2.87
2018-12-04T13:31:17.523Z,3.27
2018-12-04T13:37:23.014Z,2.57
2018-12-04T13:43:27.723Z,2.90
2018-12-04T13:49:33.873Z,3.57
2018-12-04T13:55:38.686Z,3.40
2018-12-04T14:01:43.498Z,3.90
2018-12-04T14:07:48.252Z,3.60
2018-12-04T14:13:53.034Z,2.83
2018-12-04T14:19:58.018Z,3.60
2018-12-04T14:26:03.120Z,3.53
2018-12-04T14:32:08.182Z,3.77
2018-12-04T14:38:13.055Z,2.80
2018-12-04T14:44:18.394Z,3.13
2018-12-04T14:50:23.346Z,2.57
2018-12-04T14:56:28.139Z,2.40
2018-12-04T15:02:32.980Z,2.67
2018-12-04T15:08:37.905Z,2.80
2018-12-04T15:14:42.797Z,2.90
2018-12-04T15:20:47.725Z,3.60
2018-12-04T15:26:59.102Z,2.93
2018-12-04T15:33:04.084Z,3.33
2018-12-04T15:39:10.090Z,3.27
2018-12-04T15:45:15.744Z,3.03
2018-12-04T15:51:20.796Z,4.13
2018-12-04T15:57:25.604Z,3.50
2018-12-04T16:03:30.618Z,3.70
2018-12-04T16:09:35.447Z,4.30
2018-12-04T16:15:40.296Z,4.17
2018-12-04T16:21:45.113Z,4.60
2018-12-04T16:27:50.376Z,5.75
2018-12-04T16:33:55.337Z,4.57
2018-12-04T16:40:00.836Z,4.00
2018-12-04T16:46:06.274Z,5.10
2018-12-04T16:52:11.076Z,5.17
2018-12-04T16:58:17.095Z,4.90
2018-12-04T17:04:26.178Z,5.07
2018-12-04T17:10:31.705Z,4.87
2018-12-04T17:16:36.779Z,4.70
2018-12-04T17:22:41.641Z,6.37
2018-12-04T17:28:46.428Z,4.27
2018-12-04T17:34:51.397Z,4.83
2018-12-04T17:40:56.242Z,6.77
2018-12-04T17:47:01.777Z,5.97
2018-12-04T17:53:06.902Z,7.50
2018-12-04T17:59:11.696Z,7.00
2018-12-04T18:05:16.455Z,7.37
2018-12-04T18:11:21.400Z,5.97
2018-12-04T18:17:27.155Z,5.20
2018-12-04T18:23:31.915Z,5.50
2018-12-04T18:29:36.810Z,6.13
2018-12-04T18:35:41.668Z,5.93
2018-12-04T18:41:46.439Z,5.90
2018-12-04T18:47:51.295Z,6.50
2018-12-04T18:53:56.201Z,6.13
2018-12-04T19:00:01.015Z,6.10
2018-12-04T19:06:10.347Z,7.30
2018-12-04T19:12:15.169Z,7.00
2018-12-04T19:18:19.968Z,7.17
2018-12-04T19:24:25.337Z,6.87
2018-12-04T19:30:30.180Z,7.30
2018-12-04T19:36:34.944Z,7.87
2018-12-04T19:42:44.365Z,7.87
2018-12-04T19:48:49.958Z,7.50
2018-12-04T19:54:54.832Z,7.50
2018-12-04T20:00:59.758Z,7.20
2018-12-04T20:07:05.152Z,7.23
2018-12-04T20:13:10.251Z,8.43
2018-12-04T20:19:15.397Z,9.00
2018-12-04T20:25:20.428Z,8.40
2018-12-04T20:31:26.469Z,7.40
2018-12-04T20:37:31.434Z,6.90
2018-12-04T20:43:40.608Z,7.10
2018-12-04T20:49:46.500Z,7.17
2018-12-04T20:55:51.302Z,7.67
2018-12-04T21:01:56.390Z,8.40
2018-12-04T21:08:01.456Z,7.63
2018-12-04T21:14:06.529Z,8.50
2018-12-04T21:20:11.502Z,9.33
2018-12-04T21:26:16.413Z,7.03
2018-12-04T21:32:26.635Z,8.57
2018-12-04T21:38:36.878Z,8.60
2018-12-04T21:44:48.167Z,8.67
2018-12-04T21:50:53.338Z,7.07
2018-12-04T21:56:59.328Z,8.33
2018-12-04T22:03:05.177Z,8.13
2018-12-04T22:09:10.258Z,7.57
2018-12-04T22:15:15.203Z,9.63
2018-12-04T22:21:20.075Z,9.37
2018-12-04T22:27:26.498Z,8.27
2018-12-04T22:33:31.693Z,7.93
2018-12-04T22:39:36.869Z,7.93
2018-12-04T22:45:42.422Z,8.17
2018-12-04T22:51:47.227Z,7.90
2018-12-04T23:04:09.332Z,9.03
2018-12-04T23:10:14.457Z,9.07
2018-12-04T23:16:19.382Z,8.60
2018-12-04T23:22:24.879Z,8.37
2018-12-04T23:28:29.566Z,8.10
2018-12-04T23:34:34.294Z,7.23
2018-12-04T23:40:39.674Z,7.63
2018-12-04T23:46:44.955Z,8.13
2018-12-04T23:52:49.763Z,7.57
2018-12-04T23:58:54.581Z,7.63
